createdAt,value
2023-03-10T00:01:32.221Z,95444.13
2023-03-10T00:04:01.084Z,95442.69
2023-03-10T00:06:32.835Z,95436.59
2023-03-10T00:09:00.032Z,95430.66
2023-03-10T00:11:27.148Z,95419.75
2023-03-10T00:13:54.304Z,95433.31
2023-03-10T00:16:26.868Z,95418.66
2023-03-10T00:18:54.164Z,95422.94
2023-03-10T00:21:24.668Z,95417.00
2023-03-10T00:23:52.566Z,95422.13
2023-03-10T00:26:20.661Z,95424.75
2023-03-10T00:28:48.072Z,95413.38
2023-03-10T00:31:17.635Z,95422.47
2023-03-10T00:33:45.030Z,95416.00
2023-03-10T00:36:14.885Z,95421.47
2023-03-10T00:38:43.560Z,95422.66
2023-03-10T00:41:22.063Z,95400.72
2023-03-10T00:43:49.837Z,95397.91
2023-03-10T00:46:17.039Z,95391.81
2023-03-10T00:48:44.915Z,95386.72
2023-03-10T00:51:12.504Z,95384.91
2023-03-10T00:53:40.656Z,95385.72
2023-03-10T00:56:09.274Z,95374.72
2023-03-10T00:58:36.603Z,95373.72
2023-03-10T01:01:05.705Z,95351.97
2023-03-10T01:03:32.844Z,95347.50
2023-03-10T01:05:59.693Z,95339.16
2023-03-10T01:08:26.456Z,95332.69
2023-03-10T01:10:53.380Z,95336.13
2023-03-10T01:13:22.238Z,95330.22
2023-03-10T01:15:50.713Z,95320.69
2023-03-10T01:18:19.487Z,95311.75
2023-03-10T01:20:46.492Z,95309.13
2023-03-10T01:23:15.458Z,95311.75
2023-03-10T01:25:42.606Z,95287.56
2023-03-10T01:28:09.657Z,95286.38
2023-03-10T01:30:36.444Z,95288.22
2023-03-10T01:33:03.259Z,95290.03
2023-03-10T01:35:31.301Z,95282.47
2023-03-10T01:37:58.526Z,95279.84
2023-03-10T01:40:26.896Z,95278.03
2023-03-10T01:43:22.501Z,95275.56
2023-03-10T01:45:51.923Z,95279.22
2023-03-10T01:48:20.739Z,95272.94
2023-03-10T01:50:51.622Z,95265.38
2023-03-10T01:53:21.200Z,95259.75
2023-03-10T01:55:53.208Z,95255.47
2023-03-10T01:58:23.108Z,95251.81
2023-03-10T02:00:52.772Z,95239.81
2023-03-10T02:03:21.806Z,95237.38
2023-03-10T02:05:59.032Z,95228.66
2023-03-10T02:08:29.855Z,95226.81
2023-03-10T02:10:57.183Z,95217.47
2023-03-10T02:13:23.944Z,95222.75
2023-03-10T02:15:51.055Z,95229.47
2023-03-10T02:18:20.078Z,95221.91
2023-03-10T02:21:08.707Z,95204.28
2023-03-10T02:23:58.652Z,95210.56
2023-03-10T02:26:43.568Z,95203.47
2023-03-10T02:29:21.183Z,95202.81
2023-03-10T02:31:48.718Z,95188.19
2023-03-10T02:34:15.742Z,95177.47
2023-03-10T02:36:42.521Z,95173.81
2023-03-10T02:39:09.238Z,95180.91
2023-03-10T02:41:37.649Z,95182.72
2023-03-10T02:44:08.170Z,95181.09
2023-03-10T02:46:35.003Z,95174.81
2023-03-10T02:49:03.579Z,95164.44
2023-03-10T02:51:34.378Z,95176.00
2023-03-10T02:54:01.991Z,95170.91
2023-03-10T02:56:31.299Z,95168.28
2023-03-10T02:58:59.438Z,95156.72
2023-03-10T03:01:30.615Z,95154.28
2023-03-10T03:03:57.807Z,95162.19
2023-03-10T03:06:25.331Z,95150.81
2023-03-10T03:08:52.063Z,95142.72
2023-03-10T03:11:18.977Z,95147.56
2023-03-10T03:13:48.548Z,95150.19
2023-03-10T03:16:15.869Z,95167.00
2023-03-10T03:18:42.624Z,95172.91
2023-03-10T03:21:18.364Z,95166.00
2023-03-10T03:23:46.275Z,95151.00
2023-03-10T03:26:24.816Z,95165.41
2023-03-10T03:28:52.345Z,95164.00
2023-03-10T03:31:23.313Z,95159.50
2023-03-10T03:33:50.970Z,95157.50
2023-03-10T03:36:18.673Z,95151.59
2023-03-10T03:38:45.419Z,95146.94
2023-03-10T03:41:12.292Z,95145.50
2023-03-10T03:43:39.089Z,95128.88
2023-03-10T03:46:06.235Z,95151.59
2023-03-10T03:48:34.926Z,95162.31
2023-03-10T03:51:03.007Z,95163.31
2023-03-10T03:53:30.218Z,95161.69
2023-03-10T03:55:57.135Z,95168.59
2023-03-10T03:58:24.397Z,95172.25
2023-03-10T04:00:51.936Z,95184.41
2023-03-10T04:03:18.910Z,95187.41
2023-03-10T04:05:45.712Z,95185.78
2023-03-10T04:08:13.583Z,95196.16
2023-03-10T04:10:40.801Z,95185.59
2023-03-10T04:13:07.569Z,95192.88
2023-03-10T04:15:35.334Z,95189.25
2023-03-10T04:18:02.165Z,95185.34
2023-03-10T04:20:28.941Z,95187.34
2023-03-10T04:22:55.731Z,95186.34
2023-03-10T04:25:22.637Z,95169.53
2023-03-10T04:27:49.638Z,95166.06
2023-03-10T04:30:16.426Z,95164.06
2023-03-10T04:32:43.288Z,95164.63
2023-03-10T04:35:12.941Z,95185.06
2023-03-10T04:37:40.164Z,95206.97
2023-03-10T04:40:09.564Z,95195.63
2023-03-10T04:42:36.558Z,95186.88
2023-03-10T04:45:03.600Z,95181.81
2023-03-10T04:47:30.320Z,95188.06
2023-03-10T04:49:56.936Z,95181.16
2023-03-10T04:52:23.785Z,95192.72
2023-03-10T04:54:50.419Z,95193.53
2023-03-10T04:57:17.406Z,95209.34
2023-03-10T04:59:44.463Z,95216.78
2023-03-10T05:02:11.111Z,95212.88
2023-03-10T05:04:39.593Z,95215.16
2023-03-10T05:07:06.470Z,95217.53
2023-03-10T05:09:36.398Z,95221.78
2023-03-10T05:12:04.006Z,95222.63
2023-03-10T05:14:31.257Z,95213.88
2023-03-10T05:16:58.004Z,95220.97
2023-03-10T05:19:24.925Z,95195.81
2023-03-10T05:21:53.284Z,95183.63
2023-03-10T05:24:20.178Z,95189.72
2023-03-10T05:26:46.772Z,95199.81
2023-03-10T05:29:13.421Z,95201.81
2023-03-10T05:31:40.178Z,95201.16
2023-03-10T05:34:06.885Z,95204.63
2023-03-10T05:36:33.661Z,95201.97
2023-03-10T05:39:00.686Z,95184.34
2023-03-10T05:41:27.726Z,95184.16
2023-03-10T05:43:54.369Z,95175.44
2023-03-10T05:46:21.054Z,95163.09
2023-03-10T05:48:47.639Z,95165.72
2023-03-10T05:51:14.310Z,95164.91
2023-03-10T05:53:41.964Z,95165.91
2023-03-10T05:56:12.141Z,95162.28
2023-03-10T05:58:39.303Z,95152.38
2023-03-10T06:01:06.708Z,95148.72
2023-03-10T06:03:34.850Z,95141.81
2023-03-10T06:06:01.941Z,95146.28
2023-03-10T06:08:29.082Z,95133.94
2023-03-10T06:10:56.996Z,95143.47
2023-03-10T06:13:24.676Z,95122.38
2023-03-10T06:15:56.894Z,95120.38
2023-03-10T06:18:23.887Z,95114.47
2023-03-10T06:20:50.973Z,95121.19
2023-03-10T06:23:18.233Z,95117.75
2023-03-10T06:25:45.318Z,95101.75
2023-03-10T06:28:12.474Z,95107.03
2023-03-10T06:30:39.146Z,95100.13
2023-03-10T06:33:06.026Z,95096.66
2023-03-10T06:35:32.971Z,95101.94
2023-03-10T06:37:59.752Z,95101.75
2023-03-10T06:40:26.517Z,95106.47
2023-03-10T06:42:53.137Z,95104.19
2023-03-10T06:45:19.877Z,95105.03
2023-03-10T06:47:46.610Z,95105.75
2023-03-10T06:50:13.774Z,95114.56
2023-03-10T06:52:42.621Z,95108.47
2023-03-10T06:55:11.338Z,95105.47
2023-03-10T06:57:38.212Z,95104.47
2023-03-10T07:00:07.885Z,95099.81
2023-03-10T07:02:37.851Z,95103.53
2023-03-10T07:05:07.488Z,95106.19
2023-03-10T07:07:34.558Z,95105.63
2023-03-10T07:10:01.324Z,95101.97
2023-03-10T07:12:28.255Z,95094.34
2023-03-10T07:14:54.992Z,95094.97
2023-03-10T07:17:22.368Z,95105.31
2023-03-10T07:19:49.119Z,95089.69
2023-03-10T07:22:15.993Z,95085.44
2023-03-10T07:24:42.707Z,95080.16
2023-03-10T07:27:09.386Z,95085.69
2023-03-10T07:29:36.675Z,95090.56
2023-03-10T07:32:03.486Z,95084.09
2023-03-10T07:34:30.315Z,95088.16
2023-03-10T07:36:56.976Z,95071.34
2023-03-10T07:39:23.726Z,95073.16
2023-03-10T07:41:50.489Z,95072.78
2023-03-10T07:44:18.287Z,95075.25
2023-03-10T07:46:45.060Z,95068.97
2023-03-10T07:49:11.824Z,95061.25
2023-03-10T07:51:38.646Z,95058.34
2023-03-10T07:54:05.406Z,95055.97
2023-03-10T07:56:32.268Z,95046.22
2023-03-10T07:59:00.833Z,95052.75
2023-03-10T08:01:27.656Z,95048.75
2023-03-10T08:03:57.549Z,95044.09
2023-03-10T08:06:27.688Z,95044.72
2023-03-10T08:08:55.049Z,95046.34
2023-03-10T08:11:22.414Z,95046.34
2023-03-10T08:13:49.460Z,95037.44
2023-03-10T08:16:18.632Z,95042.34
2023-03-10T08:18:45.421Z,95032.41
2023-03-10T08:21:12.676Z,95048.44
2023-03-10T08:23:39.538Z,95050.88
2023-03-10T08:26:09.236Z,95046.03
2023-03-10T08:28:38.879Z,95040.75
2023-03-10T08:31:14.870Z,95044.84
2023-03-10T08:33:42.579Z,95046.91
2023-03-10T08:36:16.278Z,95039.81
2023-03-10T08:38:44.206Z,95042.88
2023-03-10T08:41:17.903Z,95050.59
2023-03-10T08:43:47.773Z,95047.59
2023-03-10T08:46:16.411Z,95043.75
2023-03-10T08:48:43.385Z,95036.03
2023-03-10T08:51:13.140Z,95037.66
2023-03-10T08:53:42.702Z,95033.19
2023-03-10T08:56:09.710Z,95037.84
2023-03-10T08:58:36.697Z,95046.38
2023-03-10T09:01:03.937Z,95045.19
2023-03-10T09:03:31.895Z,95053.94
2023-03-10T09:05:59.240Z,95057.00
2023-03-10T09:08:27.700Z,95054.16
2023-03-10T09:10:55.197Z,95049.50
2023-03-10T09:13:22.534Z,95056.44
2023-03-10T09:15:50.839Z,95060.50
2023-03-10T09:18:17.683Z,95051.38
2023-03-10T09:20:45.858Z,95056.31
2023-03-10T09:23:15.332Z,95052.47
2023-03-10T09:25:42.714Z,95052.88
2023-03-10T09:28:11.674Z,95056.13
2023-03-10T09:30:41.284Z,95047.84
2023-03-10T09:33:13.976Z,95048.03
2023-03-10T09:35:41.933Z,95052.50
2023-03-10T09:38:15.166Z,95044.41
2023-03-10T09:41:08.680Z,95044.66
2023-03-10T09:43:45.677Z,95034.91
2023-03-10T09:46:24.950Z,95042.44
2023-03-10T09:49:30.572Z,95052.22
2023-03-10T09:51:57.619Z,95019.09
2023-03-10T09:54:30.314Z,95051.00
2023-03-10T09:57:00.072Z,95053.00
2023-03-10T09:59:39.240Z,95044.06
2023-03-10T10:02:19.381Z,95059.06
2023-03-10T10:04:49.230Z,95072.59
2023-03-10T10:07:19.730Z,95079.47
2023-03-10T10:09:50.684Z,95086.00
2023-03-10T10:12:23.851Z,95068.75
2023-03-10T10:14:58.086Z,95068.94
2023-03-10T10:17:58.306Z,95068.13
2023-03-10T10:20:39.443Z,95064.69
2023-03-10T10:23:25.280Z,95057.00
2023-03-10T10:25:52.220Z,95072.47
2023-03-10T10:28:39.228Z,95075.16
2023-03-10T10:31:21.736Z,95072.94
2023-03-10T10:34:00.486Z,95073.78
2023-03-10T10:36:47.283Z,95077.09
2023-03-10T10:39:32.579Z,95081.13
2023-03-10T10:42:24.806Z,95064.84
2023-03-10T10:45:02.413Z,95055.09
2023-03-10T10:47:29.461Z,95058.38
2023-03-10T10:50:17.514Z,95043.75
2023-03-10T10:52:50.721Z,95036.84
2023-03-10T10:55:35.137Z,95038.47
2023-03-10T10:58:07.197Z,95029.59
2023-03-10T11:00:53.744Z,95032.84
2023-03-10T11:03:27.597Z,95025.97
2023-03-10T11:05:56.421Z,95027.00
2023-03-10T11:08:40.877Z,95020.72
2023-03-10T11:11:25.924Z,95017.88
2023-03-10T11:14:13.185Z,95017.91
2023-03-10T11:17:00.269Z,95020.38
2023-03-10T11:19:50.070Z,95022.66
2023-03-10T11:22:39.011Z,95017.63
2023-03-10T11:25:18.701Z,95019.25
2023-03-10T11:28:04.024Z,95017.03
2023-03-10T11:30:33.854Z,95026.19
2023-03-10T11:33:00.800Z,95019.47
2023-03-10T11:35:30.677Z,95015.41
2023-03-10T11:38:18.343Z,95001.19
2023-03-10T11:40:54.281Z,95008.50
2023-03-10T11:43:56.658Z,95007.88
2023-03-10T11:46:37.186Z,94996.47
2023-03-10T11:49:08.704Z,94995.88
2023-03-10T11:51:41.884Z,95000.16
2023-03-10T11:54:35.159Z,95004.66
2023-03-10T11:57:10.464Z,95002.59
2023-03-10T11:59:47.812Z,95002.81
2023-03-10T12:02:24.758Z,95005.63
2023-03-10T12:04:59.114Z,94993.22
2023-03-10T12:07:32.263Z,94993.22
2023-03-10T12:10:02.573Z,94986.91
2023-03-10T12:12:37.282Z,94998.31
2023-03-10T12:15:16.029Z,94981.81
2023-03-10T12:17:43.153Z,94984.88
2023-03-10T12:20:16.075Z,94972.03
2023-03-10T12:22:52.697Z,94984.66
2023-03-10T12:25:28.138Z,94986.31
2023-03-10T12:28:28.124Z,94975.31
2023-03-10T12:31:06.786Z,94990.56
2023-03-10T12:33:42.714Z,94976.94
2023-03-10T12:36:32.797Z,94979.59
2023-03-10T12:38:59.649Z,94987.53
2023-03-10T12:41:26.297Z,94963.50
2023-03-10T12:43:54.268Z,94982.03
2023-03-10T12:46:41.771Z,94983.28
2023-03-10T12:49:11.858Z,94973.91
2023-03-10T12:51:43.249Z,94975.34
2023-03-10T12:54:42.954Z,94955.59
2023-03-10T12:57:34.064Z,94953.75
2023-03-10T13:00:15.429Z,94947.66
2023-03-10T13:02:54.056Z,94959.66
2023-03-10T13:05:24.789Z,94969.00
2023-03-10T13:07:59.631Z,94966.38
2023-03-10T13:10:31.463Z,94972.06
2023-03-10T13:13:05.658Z,94972.06
2023-03-10T13:15:34.603Z,94961.28
2023-03-10T13:18:21.488Z,94966.75
2023-03-10T13:20:49.357Z,94971.66
2023-03-10T13:23:25.181Z,94967.97
2023-03-10T13:25:59.671Z,95001.34
2023-03-10T13:28:29.063Z,94972.88
2023-03-10T13:31:17.037Z,94972.47
2023-03-10T13:33:52.842Z,94971.22
2023-03-10T13:36:27.346Z,94961.25
2023-03-10T13:38:56.470Z,94952.31
2023-03-10T13:41:23.788Z,94967.72
2023-03-10T13:43:55.214Z,94974.03
2023-03-10T13:46:26.665Z,94963.91
2023-03-10T13:48:55.448Z,94966.16
2023-03-10T13:51:32.218Z,94963.91
2023-03-10T13:54:22.242Z,94959.84
2023-03-10T13:56:52.604Z,94970.81
2023-03-10T13:59:29.555Z,94977.50
2023-03-10T14:01:58.896Z,94969.56
2023-03-10T14:04:45.259Z,94967.31
2023-03-10T14:07:19.684Z,94975.03
2023-03-10T14:09:48.981Z,94979.94
2023-03-10T14:12:35.069Z,94979.72
2023-03-10T14:15:20.062Z,94992.94
2023-03-10T14:17:47.813Z,94998.41
2023-03-10T14:20:34.287Z,94988.25
2023-03-10T14:23:23.549Z,94990.09
2023-03-10T14:25:55.084Z,94996.97
2023-03-10T14:28:30.254Z,94989.47
2023-03-10T14:30:57.927Z,94998.41
2023-03-10T14:33:24.594Z,94993.53
2023-03-10T14:35:51.309Z,94978.06
2023-03-10T14:38:18.130Z,94997.56
2023-03-10T14:40:48.069Z,94985.34
2023-03-10T14:43:28.842Z,94990.84
2023-03-10T14:46:00.360Z,94992.28
2023-03-10T14:48:30.688Z,94980.28
2023-03-10T14:50:57.471Z,94987.59
2023-03-10T14:53:26.149Z,94998.78
2023-03-10T14:55:58.549Z,95000.81
2023-03-10T14:58:32.285Z,94993.69
2023-03-10T15:01:00.899Z,95001.84
2023-03-10T15:03:28.252Z,94997.97
2023-03-10T15:05:55.229Z,95014.03
2023-03-10T15:08:22.156Z,95013.41
2023-03-10T15:10:51.008Z,95011.78
2023-03-10T15:13:24.200Z,95012.56
2023-03-10T15:15:51.813Z,95016.03
2023-03-10T15:18:22.668Z,95016.84
2023-03-10T15:20:49.845Z,95014.81
2023-03-10T15:23:20.118Z,95018.25
2023-03-10T15:25:48.335Z,95022.75
2023-03-10T15:28:15.158Z,95024.16
2023-03-10T15:30:43.218Z,95026.41
2023-03-10T15:33:11.002Z,95042.44
2023-03-10T15:35:44.490Z,95038.72
2023-03-10T15:38:19.193Z,95042.16
2023-03-10T15:40:48.323Z,95044.00
2023-03-10T15:43:15.464Z,95049.47
2023-03-10T15:45:52.145Z,95058.41
2023-03-10T15:48:22.014Z,95056.81
2023-03-10T15:50:49.519Z,95051.50
2023-03-10T15:53:16.716Z,95060.66
2023-03-10T15:55:44.076Z,95061.66
2023-03-10T15:58:12.044Z,95062.91
2023-03-10T16:00:39.716Z,95058.44
2023-03-10T16:03:06.713Z,95068.50
2023-03-10T16:05:59.759Z,95067.69
2023-03-10T16:08:32.855Z,95070.81
2023-03-10T16:11:02.766Z,95069.38
2023-03-10T16:13:29.749Z,95072.63
2023-03-10T16:16:18.229Z,95067.34
2023-03-10T16:18:55.449Z,95089.09
2023-03-10T16:21:25.361Z,95073.59
2023-03-10T16:23:56.738Z,95081.38
2023-03-10T16:26:27.444Z,95091.13
2023-03-10T16:28:56.053Z,95092.94
2023-03-10T16:31:32.327Z,95106.72
2023-03-10T16:34:18.296Z,95081.53
2023-03-10T16:40:13.517Z,95077.88
2023-03-10T16:42:56.120Z,95097.94
2023-03-10T16:45:23.486Z,95101.31
2023-03-10T16:47:56.197Z,95089.56
2023-03-10T16:50:29.085Z,95089.56
2023-03-10T16:52:58.661Z,95100.31
2023-03-10T16:55:25.515Z,95100.25
2023-03-10T16:57:52.475Z,95101.69
2023-03-10T17:00:21.285Z,95112.88
2023-03-10T17:03:10.352Z,95102.56
2023-03-10T17:05:39.515Z,95111.69
2023-03-10T17:08:06.646Z,95116.66
2023-03-10T17:10:36.658Z,95110.19
2023-03-10T17:13:03.924Z,95115.13
2023-03-10T17:15:31.280Z,95138.72
2023-03-10T17:18:07.240Z,95148.47
2023-03-10T17:20:35.198Z,95164.38
2023-03-10T17:23:02.039Z,95162.72
2023-03-10T17:25:30.180Z,95171.25
2023-03-10T17:28:00.681Z,95191.47
2023-03-10T17:30:27.582Z,95196.00
2023-03-10T17:33:38.230Z,95191.72
2023-03-10T17:36:27.131Z,95194.50
2023-03-10T17:38:59.238Z,95195.44
2023-03-10T17:41:30.328Z,95214.97
2023-03-10T17:43:57.344Z,95219.78
2023-03-10T17:46:27.718Z,95232.88
2023-03-10T17:48:55.078Z,95235.09
2023-03-10T17:51:24.971Z,95237.72
2023-03-10T17:53:52.687Z,95246.47
2023-03-10T17:56:20.341Z,95237.03
2023-03-10T17:58:47.081Z,95223.00
2023-03-10T18:01:21.246Z,95221.00
2023-03-10T18:03:48.771Z,95238.97
2023-03-10T18:06:21.301Z,95223.78
2023-03-10T18:08:49.312Z,95235.66
2023-03-10T18:11:17.340Z,95232.56
2023-03-10T18:13:44.328Z,95235.31
2023-03-10T18:16:17.070Z,95226.94
2023-03-10T18:18:44.400Z,95229.78
2023-03-10T18:21:13.120Z,95243.38
2023-03-10T18:23:40.031Z,95237.91
2023-03-10T18:26:12.481Z,95237.72
2023-03-10T18:28:40.194Z,95222.25
2023-03-10T18:31:09.516Z,95256.34
2023-03-10T18:33:37.181Z,95252.09
2023-03-10T18:36:06.582Z,95258.28
2023-03-10T18:38:33.800Z,95263.19
2023-03-10T18:41:02.904Z,95268.38
2023-03-10T18:43:30.201Z,95269.63
2023-03-10T18:45:56.994Z,95272.72
2023-03-10T18:48:27.118Z,95277.72
2023-03-10T18:50:58.434Z,95268.25
2023-03-10T18:53:29.198Z,95262.50
2023-03-10T18:55:57.970Z,95263.16
2023-03-10T18:58:27.878Z,95263.16
2023-03-10T19:00:54.969Z,95260.50
2023-03-10T19:03:22.286Z,95251.16
2023-03-10T19:05:54.399Z,95245.41
2023-03-10T19:08:22.626Z,95246.69
2023-03-10T19:10:59.931Z,95248.25
2023-03-10T19:13:28.900Z,95260.88
2023-03-10T19:15:55.927Z,95263.06
2023-03-10T19:18:23.305Z,95258.09
2023-03-10T19:20:51.066Z,95254.44
2023-03-10T19:23:17.884Z,95256.63
2023-03-10T19:25:44.595Z,95247.72
2023-03-10T19:28:11.315Z,95242.06
2023-03-10T19:30:42.870Z,95258.97
2023-03-10T19:33:10.942Z,95242.53
2023-03-10T19:35:38.296Z,95234.41
2023-03-10T19:38:05.799Z,95235.06
2023-03-10T19:40:32.681Z,95243.16
2023-03-10T19:42:59.979Z,95252.69
2023-03-10T19:45:26.875Z,95256.25
2023-03-10T19:47:55.598Z,95249.44
2023-03-10T19:50:22.278Z,95258.97
2023-03-10T19:52:50.088Z,95254.25
2023-03-10T19:55:20.073Z,95253.53
2023-03-10T19:57:48.738Z,95253.09
2023-03-10T20:00:20.707Z,95252.47
2023-03-10T20:02:47.559Z,95224.09
2023-03-10T20:05:15.446Z,95233.38
2023-03-10T20:07:46.475Z,95246.66
2023-03-10T20:10:15.523Z,95270.03
2023-03-10T20:12:42.523Z,95258.47
2023-03-10T20:15:10.163Z,95269.66
2023-03-10T20:17:36.994Z,95265.94
2023-03-10T20:20:10.486Z,95267.66
2023-03-10T20:22:39.554Z,95275.03
2023-03-10T20:25:08.777Z,95276.94
2023-03-10T20:27:35.779Z,95269.28
2023-03-10T20:30:06.639Z,95284.84
2023-03-10T20:32:36.302Z,95286.94
2023-03-10T20:35:04.787Z,95309.50
2023-03-10T20:37:31.869Z,95301.59
2023-03-10T20:39:58.695Z,95321.31
2023-03-10T20:42:25.528Z,95322.22
2023-03-10T20:44:52.587Z,95328.50
2023-03-10T20:47:19.515Z,95336.03
2023-03-10T20:49:46.360Z,95336.59
2023-03-10T20:52:13.113Z,95350.41
2023-03-10T20:54:40.096Z,95337.78
2023-03-10T20:57:06.815Z,95344.78
2023-03-10T20:59:33.457Z,95328.78
2023-03-10T21:02:00.638Z,95331.06
2023-03-10T21:04:28.100Z,95337.16
2023-03-10T21:06:54.923Z,95346.69
2023-03-10T21:09:21.599Z,95357.59
2023-03-10T21:11:48.458Z,95378.53
2023-03-10T21:14:17.081Z,95393.41
2023-03-10T21:16:46.812Z,95406.59
2023-03-10T21:19:13.743Z,95416.34
2023-03-10T21:21:40.673Z,95412.53
2023-03-10T21:24:08.136Z,95414.69
2023-03-10T21:26:35.997Z,95407.84
2023-03-10T21:29:03.844Z,95418.28
2023-03-10T21:31:31.128Z,95426.53
2023-03-10T21:33:57.885Z,95417.41
2023-03-10T21:36:25.232Z,95434.03
2023-03-10T21:38:52.817Z,95447.97
2023-03-10T21:41:22.314Z,95455.75
2023-03-10T21:43:50.050Z,95453.66
2023-03-10T21:46:16.727Z,95465.78
2023-03-10T21:48:44.447Z,95474.34
2023-03-10T21:51:16.328Z,95482.06
2023-03-10T21:53:43.550Z,95491.44
2023-03-10T21:56:10.945Z,95518.44
2023-03-10T21:58:40.802Z,95549.91
2023-03-10T22:01:13.979Z,95551.25
2023-03-10T22:03:41.768Z,95597.94
2023-03-10T22:06:09.321Z,95597.72
2023-03-10T22:08:37.955Z,95605.81
2023-03-10T22:11:07.093Z,95610.25
2023-03-10T22:13:35.000Z,95610.94
2023-03-10T22:16:03.684Z,95630.41
2023-03-10T22:18:31.218Z,95642.75
2023-03-10T22:20:58.003Z,95650.66
2023-03-10T22:23:24.722Z,95665.53
2023-03-10T22:25:52.007Z,95667.53
2023-03-10T22:28:18.654Z,95669.84
2023-03-10T22:30:45.257Z,95666.59
2023-03-10T22:33:12.218Z,95673.94
2023-03-10T22:35:39.122Z,95668.22
2023-03-10T22:38:06.489Z,95665.25
2023-03-10T22:40:33.237Z,95678.88
2023-03-10T22:43:00.052Z,95684.81
2023-03-10T22:45:32.533Z,95684.63
2023-03-10T22:48:02.134Z,95675.78
2023-03-10T22:50:41.203Z,95693.72
2023-03-10T22:53:12.606Z,95705.91
2023-03-10T22:55:39.419Z,95721.41
2023-03-10T22:58:07.637Z,95713.66
2023-03-10T23:00:35.330Z,95725.19
2023-03-10T23:03:04.925Z,95731.47
2023-03-10T23:05:31.973Z,95737.06
2023-03-10T23:07:58.676Z,95725.38
2023-03-10T23:10:27.595Z,95740.88
2023-03-10T23:12:54.762Z,95748.09
2023-03-10T23:15:25.691Z,95764.56
2023-03-10T23:17:54.109Z,95753.88
2023-03-10T23:20:24.235Z,95753.53
2023-03-10T23:22:51.136Z,95755.19
2023-03-10T23:25:23.818Z,95773.63
2023-03-10T23:27:50.592Z,95787.13
2023-03-10T23:30:17.387Z,95798.50
2023-03-10T23:32:46.412Z,95806.88
2023-03-10T23:35:15.289Z,95828.78
2023-03-10T23:37:42.134Z,95826.69
2023-03-10T23:40:11.835Z,95829.31
2023-03-10T23:42:39.281Z,95830.47
2023-03-10T23:45:09.282Z,95822.88
2023-03-10T23:47:36.412Z,95842.47
2023-03-10T23:50:04.825Z,95839.16
2023-03-10T23:52:31.526Z,95849.03
2023-03-10T23:54:58.470Z,95839.31
2023-03-10T23:57:25.654Z,95863.22
2023-03-10T23:59:52.502Z,95863.69
